Time;durP1;ratioP1;P1;durP2;ratioP2;P2;SDS_P1;SDS_P2;PMS_P1;PMS_P2;Temp;Humidity;BMP_temperature;BMP_pressure;BME280_temperature;BME280_humidity;BME280_pressure;Samples;Min_cycle;Max_cycle;Signal;HPM_P1;HPM_P2
2021/09/26 00:05:21;;;;;;;7.62;3.97;;;17.70;99.90;;;;;;6770271;87;20188;-77
2021/09/26 00:15:23;;;;;;;7.37;4.33;;;17.90;99.90;;;;;;6769991;87;20195;-77
2021/09/26 00:25:23;;;;;;;7.07;4.62;;;17.60;99.90;;;;;;6769286;87;20250;-77
2021/09/26 00:35:26;;;;;;;6.40;4.65;;;17.10;99.90;;;;;;6768904;87;20195;-76
2021/09/26 00:45:27;;;;;;;8.60;5.53;;;16.90;99.90;;;;;;6768574;87;20245;-78
2021/09/26 00:55:30;;;;;;;8.10;5.25;;;16.50;99.90;;;;;;6770842;87;20257;-77
2021/09/26 01:05:31;;;;;;;7.10;4.97;;;16.70;99.90;;;;;;6769913;87;20215;-76
2021/09/26 01:16:05;;;;;;;8.57;5.62;;;17.00;99.90;;;;;;6770726;87;20324;-78
2021/09/26 01:26:42;;;;;;;10.80;5.07;;;17.00;99.90;;;;;;6735870;88;20253;-76
2021/09/26 01:37:00;;;;;;;9.07;5.03;;;17.20;99.90;;;;;;6737092;88;20172;-78
2021/09/26 01:47:03;;;;;;;7.05;4.93;;;17.30;99.90;;;;;;6751924;88;20616;-78
2021/09/26 01:57:04;;;;;;;8.18;4.90;;;17.30;99.90;;;;;;6735069;88;20165;-76
2021/09/26 02:07:05;;;;;;;7.05;4.43;;;17.30;99.90;;;;;;6734024;88;20224;-78
2021/09/26 02:17:07;;;;;;;6.75;4.60;;;17.40;99.90;;;;;;6734281;88;20216;-77
2021/09/26 02:27:07;;;;;;;7.53;4.50;;;17.50;99.90;;;;;;6751293;88;20219;-77
2021/09/26 02:37:08;;;;;;;7.12;4.45;;;17.50;99.90;;;;;;6751128;88;20184;-77
2021/09/26 02:47:17;;;;;;;6.65;4.85;;;17.70;99.90;;;;;;6750347;88;20708;-77
2021/09/26 02:57:17;;;;;;;7.97;5.25;;;17.60;99.90;;;;;;6749506;88;20202;-75
2021/09/26 03:07:18;;;;;;;7.37;4.90;;;17.60;99.90;;;;;;6754528;88;20216;-78
2021/09/26 03:17:19;;;;;;;7.37;5.03;;;17.50;99.90;;;;;;6752495;88;20237;-76
2021/09/26 03:27:19;;;;;;;9.45;5.45;;;17.50;99.90;;;;;;6752197;88;20205;-75
2021/09/26 03:37:20;;;;;;;9.10;5.43;;;17.40;99.90;;;;;;6752559;88;20195;-77
2021/09/26 03:47:20;;;;;;;8.93;5.47;;;17.40;99.90;;;;;;6752458;88;20508;-75
2021/09/26 03:57:21;;;;;;;7.62;5.35;;;17.40;99.90;;;;;;6750849;88;20586;-78
2021/09/26 04:07:22;;;;;;;8.45;5.53;;;17.40;99.90;;;;;;6750362;88;20308;-76
2021/09/26 04:17:23;;;;;;;8.13;5.60;;;17.50;99.90;;;;;;6750731;88;20208;-77
2021/09/26 04:27:23;;;;;;;8.93;5.55;;;17.40;99.90;;;;;;6750548;88;21196;-75
2021/09/26 04:37:24;;;;;;;8.90;5.53;;;17.20;99.90;;;;;;6751193;88;20215;-75
2021/09/26 04:47:24;;;;;;;8.93;5.20;;;17.30;99.90;;;;;;6751030;88;20537;-76
2021/09/26 04:57:25;;;;;;;9.50;5.53;;;17.30;99.90;;;;;;6733572;88;20246;-76
2021/09/26 05:07:26;;;;;;;8.68;5.65;;;17.20;99.90;;;;;;6732905;88;20248;-76
2021/09/26 05:17:26;;;;;;;8.43;5.20;;;17.30;99.90;;;;;;6732231;88;20818;-75
2021/09/26 05:27:27;;;;;;;7.97;5.50;;;17.40;99.90;;;;;;6733148;88;20632;-75
2021/09/26 05:37:28;;;;;;;10.00;6.03;;;17.50;99.90;;;;;;6732171;88;20330;-77
2021/09/26 05:47:29;;;;;;;9.90;6.10;;;17.40;99.90;;;;;;6739668;88;20502;-77
2021/09/26 05:57:30;;;;;;;10.98;5.93;;;17.40;99.90;;;;;;6752464;87;20194;-76
2021/09/26 06:07:30;;;;;;;10.38;6.50;;;17.40;99.90;;;;;;6734036;87;20613;-76
2021/09/26 06:17:31;;;;;;;9.90;6.20;;;17.40;99.90;;;;;;6738907;87;20176;-76
2021/09/26 06:27:32;;;;;;;9.25;5.95;;;17.40;99.90;;;;;;6750406;87;20254;-75
2021/09/26 06:37:33;;;;;;;11.32;6.35;;;17.40;99.90;;;;;;6756949;88;20254;-77
2021/09/26 06:47:33;;;;;;;9.45;5.72;;;17.70;99.90;;;;;;6753140;88;20190;-76
2021/09/26 06:57:34;;;;;;;9.73;5.78;;;17.90;99.90;;;;;;6754922;88;20671;-76
2021/09/26 07:07:34;;;;;;;9.25;5.65;;;18.20;99.90;;;;;;6753672;88;20294;-76
2021/09/26 07:17:35;;;;;;;9.50;5.90;;;18.60;99.90;;;;;;6751908;87;20188;-73
2021/09/26 07:27:36;;;;;;;9.05;5.93;;;19.00;99.90;;;;;;6751085;88;20284;-75
2021/09/26 07:37:36;;;;;;;8.80;5.97;;;19.20;99.90;;;;;;6752538;87;20217;-75
2021/09/26 07:47:37;;;;;;;9.20;5.60;;;19.40;99.90;;;;;;6751395;88;21252;-76
2021/09/26 07:57:37;;;;;;;11.48;5.70;;;19.60;99.90;;;;;;6750872;87;20535;-76
2021/09/26 08:07:38;;;;;;;8.05;5.72;;;20.00;99.90;;;;;;6749458;87;20189;-77
2021/09/26 08:17:39;;;;;;;9.55;5.72;;;20.20;99.90;;;;;;6748531;87;20213;-77
2021/09/26 08:27:40;;;;;;;8.20;5.22;;;20.80;99.90;;;;;;6750190;87;20966;-78
2021/09/26 08:37:41;;;;;;;8.73;6.03;;;21.30;99.90;;;;;;6752710;87;20330;-77
2021/09/26 08:47:42;;;;;;;8.38;5.30;;;21.20;99.90;;;;;;6751030;88;20199;-78
2021/09/26 08:57:43;;;;;;;7.00;4.57;;;21.90;99.90;;;;;;6752030;87;20199;-76
2021/09/26 09:08:00;;;;;;;7.47;4.20;;;23.00;99.90;;;;;;6751770;87;20211;-77
2021/09/26 09:18:03;;;;;;;6.25;4.40;;;24.10;99.90;;;;;;6734049;88;20182;-76
2021/09/26 09:28:10;;;;;;;8.00;4.40;;;24.50;99.90;;;;;;6746631;88;20184;-77
2021/09/26 09:38:15;;;;;;;7.45;3.40;;;24.50;99.90;;;;;;6753328;87;20783;-76
2021/09/26 09:48:21;;;;;;;5.03;3.60;;;23.90;99.90;;;;;;6753124;87;20636;-77
2021/09/26 09:58:22;;;;;;;7.47;3.50;;;23.90;99.90;;;;;;6750280;88;20180;-77
2021/09/26 10:08:32;;;;;;;6.45;3.15;;;24.30;99.90;;;;;;6754710;88;20226;-76
2021/09/26 10:18:34;;;;;;;6.37;3.87;;;25.20;99.90;;;;;;6756002;88;20195;-77
2021/09/26 10:28:36;;;;;;;6.15;3.90;;;24.90;99.90;;;;;;6751769;88;20196;-76
2021/09/26 10:38:38;;;;;;;7.37;4.25;;;25.00;99.90;;;;;;6734409;88;20208;-76
2021/09/26 10:49:01;;;;;;;6.97;4.03;;;24.80;99.90;;;;;;6735926;88;20214;-77
2021/09/26 10:59:01;;;;;;;6.50;3.60;;;24.60;99.90;;;;;;6735551;88;20977;-77
2021/09/26 11:09:04;;;;;;;7.55;3.10;;;23.80;99.90;;;;;;6735026;88;20208;-76
2021/09/26 11:19:15;;;;;;;8.07;3.30;;;23.40;99.90;;;;;;6736235;88;20209;-76
2021/09/26 11:29:15;;;;;;;6.55;4.40;;;23.20;99.90;;;;;;6734842;88;20215;-76
2021/09/26 11:39:27;;;;;;;9.93;4.32;;;22.90;99.90;;;;;;6739367;88;20246;-76
2021/09/26 11:49:30;;;;;;;11.23;5.10;;;22.80;99.90;;;;;;6738226;88;20223;-77
2021/09/26 11:59:38;;;;;;;10.10;4.28;;;22.10;99.90;;;;;;6737748;88;20600;-76
2021/09/26 12:09:47;;;;;;;6.00;4.50;;;22.10;99.90;;;;;;6738749;88;20241;-77
2021/09/26 12:19:47;;;;;;;7.72;4.70;;;22.10;99.90;;;;;;6739275;88;20225;-78
2021/09/26 12:29:51;;;;;;;8.07;5.07;;;22.10;99.90;;;;;;6736248;88;20195;-78
2021/09/26 12:39:55;;;;;;;7.20;4.67;;;22.10;99.90;;;;;;6735790;88;20608;-76
2021/09/26 12:49:57;;;;;;;;;;;21.90;99.90;;;;;;6745153;77;20339;-75
2021/09/26 13:00:32;;;;;;;6.78;4.85;;;22.00;99.90;;;;;;6739776;87;20092;-76
2021/09/26 13:10:35;;;;;;;6.27;4.87;;;21.60;99.90;;;;;;6735349;87;20689;-75
2021/09/26 13:20:35;;;;;;;7.93;4.68;;;21.60;99.90;;;;;;6750797;88;20554;-77
2021/09/26 13:30:41;;;;;;;6.57;4.40;;;21.60;99.90;;;;;;6753688;87;20184;-78
2021/09/26 13:41:20;;;;;;;10.10;7.00;;;21.80;99.90;;;;;;6809527;76;20184;-81
2021/09/26 13:51:21;;;;;;;8.32;6.00;;;21.70;99.90;;;;;;6793711;77;20285;-79
2021/09/26 14:01:22;;;;;;;8.50;5.72;;;21.60;99.90;;;;;;6750130;87;20251;-78
2021/09/26 14:11:23;;;;;;;7.07;4.37;;;21.80;99.90;;;;;;6750223;87;20185;-78
2021/09/26 14:21:25;;;;;;;6.62;4.15;;;22.00;99.90;;;;;;6751297;87;20180;-77
2021/09/26 14:31:27;;;;;;;9.30;5.03;;;21.80;99.90;;;;;;6755964;87;20723;-78
2021/09/26 14:41:28;;;;;;;6.90;5.00;;;21.50;99.90;;;;;;6751813;87;20702;-78
2021/09/26 14:51:29;;;;;;;7.80;5.40;;;21.30;99.90;;;;;;6754575;87;20200;-76
2021/09/26 15:01:30;;;;;;;9.25;6.45;;;21.20;99.90;;;;;;6752305;87;20214;-77
2021/09/26 15:11:32;;;;;;;10.63;7.43;;;21.10;99.90;;;;;;6753489;87;20173;-78
2021/09/26 15:21:33;;;;;;;15.05;9.60;;;20.90;99.90;;;;;;6753426;87;20173;-77
2021/09/26 15:31:34;;;;;;;11.38;7.20;;;20.80;99.90;;;;;;6746873;87;20197;-77
2021/09/26 15:41:35;;;;;;;10.10;6.82;;;20.40;99.90;;;;;;6746906;87;20552;-76
2021/09/26 15:51:36;;;;;;;12.13;6.40;;;20.40;99.90;;;;;;6743006;87;20258;-77
2021/09/26 16:01:36;;;;;;;9.23;6.50;;;20.30;99.90;;;;;;6746509;87;20189;-78
2021/09/26 16:11:37;;;;;;;9.73;6.90;;;20.30;99.90;;;;;;6749881;87;20781;-77
2021/09/26 16:21:37;;;;;;;11.68;6.95;;;20.00;99.90;;;;;;6746951;87;20205;-77
2021/09/26 16:31:38;;;;;;;9.88;6.90;;;19.90;99.90;;;;;;6747603;87;20168;-78
2021/09/26 16:41:39;;;;;;;9.47;6.70;;;19.90;99.90;;;;;;6749297;87;20233;-75
2021/09/26 16:51:39;;;;;;;11.57;7.32;;;20.00;99.90;;;;;;6755117;87;20943;-75
2021/09/26 17:01:40;;;;;;;9.57;6.95;;;20.00;99.90;;;;;;6753473;87;20317;-76
2021/09/26 17:11:41;;;;;;;10.00;7.75;;;19.90;99.90;;;;;;6750958;87;21012;-77
2021/09/26 17:21:42;;;;;;;11.02;7.75;;;19.70;99.90;;;;;;6757755;87;20233;-77
2021/09/26 17:31:43;;;;;;;10.10;7.80;;;19.60;99.90;;;;;;6748811;87;20188;-77
2021/09/26 17:41:43;;;;;;;13.02;7.53;;;19.50;99.90;;;;;;6749464;87;20235;-77
2021/09/26 17:51:45;;;;;;;11.43;7.90;;;19.50;99.90;;;;;;6755258;87;21170;-78
2021/09/26 18:01:45;;;;;;;14.52;8.40;;;19.40;99.90;;;;;;6754916;87;20637;-76
2021/09/26 18:11:46;;;;;;;15.15;9.07;;;19.30;99.90;;;;;;6761107;87;20203;-77
2021/09/26 18:21:48;;;;;;;14.00;9.00;;;19.20;99.90;;;;;;6764845;87;20811;-79
2021/09/26 18:31:48;;;;;;;13.35;8.73;;;19.10;99.90;;;;;;6772111;87;20200;-76
2021/09/26 18:41:49;;;;;;;12.57;9.13;;;18.90;99.90;;;;;;6771568;87;20176;-77
2021/09/26 19:01:53;;;;;;;18.08;10.73;;;18.90;99.90;;;;;;6741821;88;20736;-81
2021/09/26 19:11:53;;;;;;;15.17;9.60;;;18.80;99.90;;;;;;6743529;88;20327;-79
2021/09/26 19:21:55;;;;;;;12.95;9.77;;;18.70;99.90;;;;;;6741329;88;20267;-78
2021/09/26 19:31:56;;;;;;;13.60;9.38;;;18.60;99.90;;;;;;6738077;88;20252;-78
2021/09/26 19:41:56;;;;;;;14.80;9.88;;;18.40;99.90;;;;;;6736386;88;20764;-78
2021/09/26 19:51:57;;;;;;;17.00;10.43;;;18.50;99.90;;;;;;6740656;88;20217;-79
2021/09/26 20:01:58;;;;;;;13.60;9.70;;;18.40;99.90;;;;;;6731694;88;20217;-80
2021/09/26 20:11:59;;;;;;;16.35;10.27;;;18.30;99.90;;;;;;6724637;88;20649;-81
2021/09/26 20:22:00;;;;;;;14.93;9.98;;;18.30;99.90;;;;;;6724107;88;20208;-78
2021/09/26 20:32:00;;;;;;;15.25;10.77;;;18.20;99.90;;;;;;6721585;88;20218;-78
2021/09/26 20:42:01;;;;;;;15.10;10.63;;;18.10;99.90;;;;;;6721102;88;20616;-81
2021/09/26 20:52:02;;;;;;;14.68;10.60;;;17.90;99.90;;;;;;6735423;88;20242;-79
2021/09/26 21:02:03;;;;;;;12.95;8.95;;;17.70;99.90;;;;;;6737734;88;20220;-79
2021/09/26 21:12:03;;;;;;;13.77;9.10;;;17.80;99.90;;;;;;6743808;88;20212;-80
2021/09/26 21:22:04;;;;;;;12.03;8.07;;;17.80;99.90;;;;;;6744414;88;20214;-79
2021/09/26 21:32:05;;;;;;;13.13;9.05;;;17.80;99.90;;;;;;6736323;88;20909;-79
2021/09/26 21:42:06;;;;;;;10.88;7.82;;;17.60;99.90;;;;;;6728043;88;20166;-79
2021/09/26 21:52:07;;;;;;;11.07;8.00;;;17.50;99.90;;;;;;6729240;88;20200;-78
2021/09/26 22:02:07;;;;;;;12.95;8.75;;;17.50;99.90;;;;;;6732864;88;20240;-79
2021/09/26 22:12:08;;;;;;;14.67;9.40;;;17.40;99.90;;;;;;6722968;88;20196;-80
2021/09/26 22:22:09;;;;;;;17.00;10.27;;;17.30;99.90;;;;;;6723244;88;20535;-78
2021/09/26 22:32:09;;;;;;;17.20;10.27;;;17.00;99.90;;;;;;6722912;88;20759;-79
2021/09/26 22:42:10;;;;;;;17.43;11.53;;;16.90;99.90;;;;;;6719764;88;20588;-78
2021/09/26 22:52:12;;;;;;;17.10;11.60;;;17.00;99.90;;;;;;6724264;88;20346;-78
2021/09/26 23:02:13;;;;;;;17.62;11.85;;;16.80;99.90;;;;;;6724506;88;20192;-79
2021/09/26 23:12:13;;;;;;;19.65;12.02;;;16.60;99.90;;;;;;6721491;88;20244;-79
2021/09/26 23:22:14;;;;;;;17.70;11.63;;;16.60;99.90;;;;;;6723482;88;20641;-78
2021/09/26 23:32:14;;;;;;;17.97;12.07;;;16.70;99.90;;;;;;6725191;88;20202;-78
2021/09/26 23:42:15;;;;;;;16.30;11.15;;;16.40;99.90;;;;;;6724484;88;20209;-79
2021/09/26 23:52:16;;;;;;;17.75;11.07;;;16.50;99.90;;;;;;6725312;88;20321;-78
